Sunday, August 19, 2018, 12:25 AM GMT
Back to Local

CYSJ, Saint John, N. B.

Location: , , Canada Lat: 45.333
Local Time: 12:25 AM GMT ( 0:25 GMT) Lon: -65.883
Time Zone: GMT Elev: 337 ft

Show me the last for .
Show Coded

Time T Td Feel RH Dir Speed Gust Alt SLP Vis Weather Sky Remarks
2018-08-19 00:00 63 59 - 88 360° 15 22 29.83 29.84 15 BKN011 None
2018-08-18 23:00 61 61 - 100 20° 13 23 29.82 29.82 15 SCT008 OVC013 None
2018-08-18 22:00 63 61 - 93 10° 15 25 29.80 29.81 4 -SHRA BR BKN008 OVC012 None
2018-08-18 21:07 63 61 - 93 20° 14 20 29.80 29.80 4 -SHRA BR SCT008 OVC012 None
2018-08-18 21:00 63 61 - 93 10° 16 - 29.80 29.81 4 -SHRA BR OVC009 None
2018-08-18 20:00 61 61 - 100 10° 12 20 29.79 29.79 4 -SHRA BR OVC008 None
2018-08-18 19:00 63 61 - 93 10° 12 20 29.77 29.77 3 -SHRA BR OVC008 None
2018-08-18 18:38 63 61 - 93 10° 12 - 29.76 29.77 3 -SHRA BR OVC008 None
2018-08-18 18:00 63 63 - 100 20° 13 - 29.75 29.76 3 -SHRA BR OVC006 None
2018-08-18 17:46 63 61 - 93 20° 15 22 29.75 29.75 3 -SHRA BR BKN006 OVC120 None
2018-08-18 17:41 63 61 - 93 20° 15 - 29.75 29.75 3 BR BKN005 OVC130 None
2018-08-18 17:00 64 64 - 100 10° 10 - 29.74 29.75 2 -SHRA BR OVC004 None
2018-08-18 16:38 64 64 - 100 330° 8 - 29.76 29.77 2 -SHRA BR OVC004 None
2018-08-18 16:36 64 64 - 100 320° 9 - 29.77 29.77 2 BR OVC003 None
2018-08-18 16:00 63 63 - 100 230° 7 - 29.76 29.77 1 BR OVC003 None
2018-08-18 15:52 63 63 - 100 210° 7 - 29.77 29.77 1 BR OVC003 None
2018-08-18 15:27 63 63 - 100 260° 7 - 29.77 29.78 0 -SHRA OVC002 None
2018-08-18 15:19 63 63 - 100 240° 6 - 29.77 29.78 0 FG OVC002 None
2018-08-18 15:00 63 63 - 100 210° 8 - 29.77 29.78 0 FG VV001 None
2018-08-18 14:23 64 64 - 100 230° 7 - 29.78 29.79 0 FG VV001 None
2018-08-18 14:00 64 64 - 100 200° 12 - 29.78 29.79 0 FG VV001 None
2018-08-18 13:55 64 64 - 100 190° 7 - 29.78 29.79 0 FG VV001 None
2018-08-18 13:43 63 63 - 100 180° 5 - 29.79 29.79 0 FG VV001 None
2018-08-18 13:40 63 63 - 100 190° 6 - 29.78 29.79 0 -SHRA BR VV001 None
2018-08-18 13:27 63 63 - 100 170° 9 - 29.78 29.79 2 -SHRA BR OVC002 None
2018-08-18 13:13 63 63 - 100 170° 8 - 29.78 29.79 2 -SHRA BR OVC004 None
2018-08-18 13:03 61 61 - 100 150° 10 20 29.79 29.79 2 SHRA BR OVC002 None
2018-08-18 13:00 61 61 - 100 130° 10 20 29.78 29.79 2 -SHRA BR OVC002 None
2018-08-18 12:52 61 61 - 100 130° 14 20 29.78 29.79 3 -SHRA BR OVC003 None
2018-08-18 12:42 61 61 - 100 140° 10 17 29.79 29.80 2 +SHRA BR BKN004 OVC010 None
2018-08-18 12:40 61 61 - 100 140° 14 - 29.79 29.80 2 -SHRA BR BKN004 OVC010 None
2018-08-18 12:34 61 61 - 100 140° 12 20 29.80 29.80 2 +SHRA BR BKN004 None
2018-08-18 12:25 61 61 - 100 130° 13 21 29.79 29.80 2 SHRA BR OVC004 None
2018-08-18 12:22 61 61 - 100 140° 13 23 29.79 29.80 4 -SHRA BR OVC004 None
2018-08-18 12:00 61 59 - 93 140° 14 20 29.80 29.80 3 -SHRA BR OVC007 Pressure falling rapidly
2018-08-18 11:57 61 59 - 93 130° 12 20 29.80 29.80 3 -SHRA BR OVC007 Pressure falling rapidly
2018-08-18 11:44 61 59 - 93 150° 10 20 29.81 29.82 2 -SHRA BR OVC007 None
2018-08-18 11:28 61 61 - 100 170° 8 23 29.81 29.81 2 SHRA BR OVC005 None
2018-08-18 11:26 61 61 - 100 150° 10 23 29.81 29.82 2 -SHRA BR OVC005 None
2018-08-18 11:00 61 59 - 93 130° 12 20 29.82 29.83 2 -RA BR OVC007 None
2018-08-18 10:30 61 59 - 93 150° 12 - 29.83 29.84 2 -RA BR OVC007 None
2018-08-18 10:00 59 59 - 100 140° 5 - 29.84 29.85 10 -RA SCT003 OVC011 None
2018-08-18 09:53 59 59 - 100 140° 5 - 29.85 29.85 10 -TSRA SCT003 OVC011 None
2018-08-18 09:17 61 57 - 87 Variable 8 - 29.87 29.87 10 TSRA SCT003 OVC014CB None
2018-08-18 09:09 61 57 - 87 110° 3 - 29.86 29.86 10 RA SCT003 OVC014 None
2018-08-18 09:00 59 57 - 93 80° 6 - 29.86 29.87 10 -RA SCT003 OVC016 None
2018-08-18 08:00 59 57 - 93 Variable 2 - 29.89 29.90 10 -RA SCT003 OVC037 None
2018-08-18 07:31 59 57 - 93 160° 12 - 29.89 29.90 10 -RA SCT003 OVC038 None
2018-08-18 07:00 61 57 - 87 150° 10 - 29.91 29.91 6 BR SCT004 OVC037 None
2018-08-18 06:00 61 59 - 93 150° 5 - 29.94 29.95 3 BR BKN003 OVC041 None
2018-08-18 05:00 59 59 - 100 170° 5 - 29.97 29.98 3 BR BKN003 OVC043 None
2018-08-18 04:37 59 59 - 100 170° 6 - 29.98 29.98 3 BR BKN003 OVC059 None
2018-08-18 04:31 59 59 - 100 180° 7 - 29.98 29.98 1 BR BKN003 BKN059 OVC130 None
2018-08-18 04:00 59 59 - 100 170° 9 - 29.99 29.99 1 BR OVC003 None
2018-08-18 03:00 59 59 - 100 190° 6 - 30.00 30.01 1 BR OVC002 None
2018-08-18 02:40 59 59 - 100 210° 7 - 30.01 30.01 1 BR OVC002 None
2018-08-18 02:17 59 59 - 100 200° 6 - 30.01 30.02 0 BR OVC002 None
2018-08-18 02:00 59 59 - 100 210° 6 - 30.02 30.02 1 BR OVC002 None
2018-08-18 01:47 59 59 - 100 200° 6 - 30.02 30.03 2 BR OVC002 None
2018-08-18 01:27 57 57 - 100 200° 5 - 30.02 30.03 10 SCT002 BKN310 None
2018-08-18 01:00 59 57 - 93 200° 3 - 30.03 30.03 15 FEW032 BKN310 None

Support USWX by starting your Amazon purchase here.